createdAt,value
2018-09-14T00:01:41.661Z,87.78
2018-09-14T00:04:11.121Z,87.92
2018-09-14T00:06:40.550Z,88.38
2018-09-14T00:09:12.428Z,88.81
2018-09-14T00:11:42.356Z,89.05
2018-09-14T00:14:12.097Z,88.83
2018-09-14T00:16:41.561Z,88.01
2018-09-14T00:19:11.031Z,88.13
2018-09-14T00:21:40.485Z,88.09
2018-09-14T00:24:09.931Z,87.62
2018-09-14T00:26:39.358Z,87.22
2018-09-14T00:29:08.815Z,87.15
2018-09-14T00:31:38.230Z,87.64
2018-09-14T00:34:07.996Z,88.13
2018-09-14T00:36:37.461Z,88.12
2018-09-14T00:39:10.092Z,88.54
2018-09-14T00:41:39.602Z,89.22
2018-09-14T00:44:09.106Z,89.43
2018-09-14T00:46:38.644Z,88.96
2018-09-14T00:49:08.110Z,89.21
2018-09-14T00:51:37.603Z,89.23
2018-09-14T00:54:07.152Z,88.34
2018-09-14T00:56:36.688Z,89.54
2018-09-14T00:59:06.499Z,89.36
2018-09-14T01:01:35.932Z,90.67
2018-09-14T01:04:05.405Z,91.87
2018-09-14T01:06:34.904Z,91.14
2018-09-14T01:09:06.466Z,91.04
2018-09-14T01:11:36.013Z,90.75
2018-09-14T01:14:05.494Z,90.60
2018-09-14T01:16:34.946Z,90.09
2018-09-14T01:19:04.406Z,88.87
2018-09-14T01:21:33.854Z,89.00
2018-09-14T01:24:03.289Z,89.03
2018-09-14T01:26:32.851Z,89.49
2018-09-14T01:29:02.300Z,88.87
2018-09-14T01:31:31.764Z,89.09
2018-09-14T01:34:01.217Z,89.30
2018-09-14T01:36:30.658Z,88.55
2018-09-14T01:39:00.131Z,88.60
2018-09-14T01:41:29.593Z,88.41
2018-09-14T01:43:59.022Z,88.60
2018-09-14T01:46:28.584Z,88.51
2018-09-14T01:48:57.989Z,88.59
2018-09-14T01:51:27.419Z,88.32
2018-09-14T01:53:56.938Z,89.12
2018-09-14T01:56:26.373Z,89.72
2018-09-14T01:58:56.346Z,90.35
2018-09-14T02:01:25.803Z,90.22
2018-09-14T02:03:55.290Z,90.49
2018-09-14T02:06:26.069Z,90.08
2018-09-14T02:08:56.000Z,89.50
2018-09-14T02:11:25.477Z,88.85
2018-09-14T02:13:54.969Z,89.23
2018-09-14T02:16:24.460Z,90.42
2018-09-14T02:18:53.912Z,90.12
2018-09-14T02:21:23.362Z,90.69
2018-09-14T02:23:52.793Z,90.38
2018-09-14T02:26:22.336Z,89.90
2018-09-14T02:28:51.781Z,90.86
2018-09-14T02:31:21.303Z,90.29
2018-09-14T02:33:50.770Z,89.95
2018-09-14T02:36:20.252Z,91.15
2018-09-14T02:38:49.648Z,91.84
2018-09-14T02:41:19.116Z,92.36
2018-09-14T02:43:48.605Z,92.59
2018-09-14T02:46:18.049Z,92.98
2018-09-14T02:48:47.535Z,93.21
2018-09-14T02:51:16.944Z,93.05
2018-09-14T02:53:46.365Z,92.92
2018-09-14T02:56:15.864Z,92.43
2018-09-14T02:58:45.323Z,91.46
2018-09-14T03:01:14.730Z,90.96
2018-09-14T03:03:44.232Z,91.30
2018-09-14T03:06:13.652Z,91.65
2018-09-14T03:08:43.075Z,91.96
2018-09-14T03:11:12.555Z,92.60
2018-09-14T03:13:41.956Z,92.82
2018-09-14T03:16:11.400Z,92.33
2018-09-14T03:18:40.906Z,91.89
2018-09-14T03:21:10.317Z,91.42
2018-09-14T03:23:39.781Z,91.59
2018-09-14T03:26:09.327Z,92.01
2018-09-14T03:28:38.762Z,92.60
2018-09-14T03:31:08.235Z,92.25
2018-09-14T03:33:37.661Z,90.63
2018-09-14T03:36:07.431Z,90.50
2018-09-14T03:38:36.886Z,89.30
2018-09-14T03:41:06.334Z,90.02
2018-09-14T03:43:35.821Z,90.83
2018-09-14T03:46:05.321Z,91.47
2018-09-14T03:48:34.788Z,91.51
2018-09-14T03:51:04.248Z,91.06
2018-09-14T03:53:33.668Z,91.24
2018-09-14T03:56:03.174Z,91.83
2018-09-14T03:58:32.602Z,90.69
2018-09-14T04:01:02.327Z,91.21
2018-09-14T04:03:31.967Z,91.67
2018-09-14T04:06:01.422Z,91.14
2018-09-14T04:08:31.216Z,90.85
2018-09-14T04:11:01.265Z,90.63
2018-09-14T04:13:30.787Z,91.03
2018-09-14T04:16:00.425Z,91.26
2018-09-14T04:18:29.895Z,91.48
2018-09-14T04:20:59.558Z,91.10
2018-09-14T04:23:29.284Z,91.26
2018-09-14T04:25:58.680Z,91.73
2018-09-14T04:28:28.258Z,93.47
2018-09-14T04:30:57.763Z,93.19
2018-09-14T04:33:27.233Z,95.02
2018-09-14T04:35:56.743Z,95.50
2018-09-14T04:38:26.521Z,94.99
2018-09-14T04:40:56.048Z,95.45
2018-09-14T04:43:25.598Z,94.43
2018-09-14T04:45:55.133Z,92.34
2018-09-14T04:48:24.830Z,91.68
2018-09-14T04:50:54.245Z,90.55
2018-09-14T04:53:23.721Z,92.57
2018-09-14T04:55:53.194Z,92.05
2018-09-14T04:58:22.780Z,90.84
2018-09-14T05:00:52.306Z,91.65
2018-09-14T05:03:21.769Z,92.36
2018-09-14T05:05:51.309Z,92.96
2018-09-14T05:08:21.113Z,94.60
2018-09-14T05:10:50.612Z,94.77
2018-09-14T05:13:20.132Z,94.84
2018-09-14T05:15:49.741Z,94.62
2018-09-14T05:18:19.223Z,93.49
2018-09-14T05:20:48.704Z,93.15
2018-09-14T05:23:18.280Z,93.37
2018-09-14T05:25:47.673Z,94.33
2018-09-14T05:28:17.112Z,94.46
2018-09-14T05:30:46.626Z,94.38
2018-09-14T05:33:16.101Z,94.74
2018-09-14T05:35:45.558Z,94.96
2018-09-14T05:38:15.348Z,94.84
2018-09-14T05:40:45.511Z,95.09
2018-09-14T05:43:14.997Z,94.97
2018-09-14T05:45:44.753Z,95.18
2018-09-14T05:48:14.346Z,95.37
2018-09-14T05:50:43.925Z,95.98
2018-09-14T05:53:13.513Z,96.24
2018-09-14T05:55:43.169Z,96.30
2018-09-14T05:58:12.766Z,96.73
2018-09-14T06:00:42.456Z,96.68
2018-09-14T06:03:11.934Z,96.81
2018-09-14T06:05:41.461Z,96.34
2018-09-14T06:08:11.186Z,95.50
2018-09-14T06:10:40.849Z,95.36
2018-09-14T06:13:10.420Z,94.75
2018-09-14T06:15:40.170Z,93.94
2018-09-14T06:18:09.717Z,93.40
2018-09-14T06:20:39.313Z,92.49
2018-09-14T06:23:09.020Z,91.15
2018-09-14T06:25:38.545Z,89.57
2018-09-14T06:28:08.104Z,89.16
2018-09-14T06:30:37.783Z,88.11
2018-09-14T06:33:07.221Z,88.39
2018-09-14T06:35:36.772Z,86.88
2018-09-14T06:38:06.337Z,87.28
2018-09-14T06:40:36.040Z,86.39
2018-09-14T06:43:05.589Z,86.38
2018-09-14T06:45:35.135Z,85.55
2018-09-14T06:48:04.760Z,85.39
2018-09-14T06:50:34.324Z,84.43
2018-09-14T06:53:04.049Z,84.63
2018-09-14T06:55:33.601Z,85.15
2018-09-14T06:58:03.106Z,84.57
2018-09-14T07:00:32.737Z,84.91
2018-09-14T07:03:02.144Z,85.32
2018-09-14T07:05:31.806Z,84.25
2018-09-14T07:08:01.337Z,83.46
2018-09-14T07:10:30.973Z,81.86
2018-09-14T07:13:00.610Z,82.15
2018-09-14T07:15:30.041Z,81.71
2018-09-14T07:18:00.544Z,81.07
2018-09-14T07:20:30.245Z,80.17
2018-09-14T07:22:59.690Z,81.10
2018-09-14T07:25:29.179Z,80.99
2018-09-14T07:27:58.765Z,81.46
2018-09-14T07:30:28.393Z,79.02
2018-09-14T07:32:57.904Z,78.29
2018-09-14T07:35:27.510Z,77.04
2018-09-14T07:37:57.190Z,77.10
2018-09-14T07:40:26.750Z,76.80
2018-09-14T07:42:56.191Z,76.75
2018-09-14T07:45:25.678Z,75.73
2018-09-14T07:47:55.153Z,75.29
2018-09-14T07:50:24.670Z,76.24
2018-09-14T07:52:54.117Z,75.33
2018-09-14T07:55:23.692Z,75.77
2018-09-14T07:57:53.270Z,74.86
2018-09-14T08:00:22.702Z,73.99
2018-09-14T08:02:52.274Z,72.48
2018-09-14T08:05:21.772Z,72.98
2018-09-14T08:07:51.230Z,71.38
2018-09-14T08:10:20.753Z,70.89
2018-09-14T08:12:50.273Z,68.62
2018-09-14T08:15:19.912Z,69.67
2018-09-14T08:17:49.505Z,66.72
2018-09-14T08:20:19.169Z,66.71
2018-09-14T08:22:48.584Z,67.88
2018-09-14T08:25:18.086Z,67.09
2018-09-14T08:27:48.018Z,65.81
2018-09-14T08:30:17.532Z,68.09
2018-09-14T08:32:47.336Z,67.15
2018-09-14T08:35:16.757Z,65.73
2018-09-14T08:37:46.258Z,63.63
2018-09-14T08:40:15.867Z,65.17
2018-09-14T08:42:45.321Z,64.18
2018-09-14T08:45:15.720Z,64.30
2018-09-14T08:47:45.214Z,63.46
2018-09-14T08:50:14.741Z,62.62
2018-09-14T08:52:44.346Z,62.14
2018-09-14T08:55:13.818Z,60.51
2018-09-14T08:57:43.345Z,60.21
2018-09-14T09:00:12.984Z,61.72
2018-09-14T09:02:42.537Z,59.83
2018-09-14T09:05:12.085Z,58.69
2018-09-14T09:07:41.577Z,60.24
2018-09-14T09:10:11.001Z,59.51
2018-09-14T09:12:40.490Z,57.93
2018-09-14T09:15:10.191Z,59.76
2018-09-14T09:17:39.641Z,56.86
2018-09-14T09:20:09.440Z,58.24
2018-09-14T09:22:39.134Z,57.65
2018-09-14T09:25:08.814Z,56.41
2018-09-14T09:27:38.429Z,57.11
2018-09-14T09:30:08.004Z,57.00
2018-09-14T09:32:37.524Z,57.51
2018-09-14T09:35:07.396Z,56.91
2018-09-14T09:37:37.217Z,54.61
2018-09-14T09:40:06.784Z,53.08
2018-09-14T09:42:36.326Z,53.49
2018-09-14T09:45:06.137Z,50.14
2018-09-14T09:47:35.733Z,51.66
2018-09-14T09:50:05.245Z,51.89
2018-09-14T09:52:34.885Z,52.03
2018-09-14T09:55:04.457Z,52.58
2018-09-14T09:57:33.890Z,51.42
2018-09-14T10:00:03.420Z,50.49
2018-09-14T10:02:39.032Z,51.26
2018-09-14T10:05:13.681Z,51.42
2018-09-14T10:07:43.129Z,52.04
2018-09-14T10:10:13.192Z,52.08
2018-09-14T10:12:42.633Z,51.47
2018-09-14T10:15:12.070Z,50.44
2018-09-14T10:17:41.679Z,51.83
2018-09-14T10:20:11.288Z,51.76
2018-09-14T10:22:40.756Z,50.16
2018-09-14T10:25:10.308Z,50.39
2018-09-14T10:27:39.841Z,50.40
2018-09-14T10:30:09.563Z,49.37
2018-09-14T10:32:39.165Z,48.15
2018-09-14T10:35:08.778Z,48.91
2018-09-14T10:37:38.236Z,49.46
2018-09-14T10:40:07.920Z,48.12
2018-09-14T10:42:37.422Z,49.71
2018-09-14T10:45:07.093Z,49.35
2018-09-14T10:47:36.537Z,48.67
2018-09-14T10:50:06.155Z,49.07
2018-09-14T10:52:36.303Z,48.37
2018-09-14T10:55:05.784Z,47.41
2018-09-14T10:57:35.310Z,47.57
2018-09-14T11:00:05.168Z,48.56
2018-09-14T11:02:34.833Z,48.47
2018-09-14T11:05:04.543Z,47.79
2018-09-14T11:07:34.042Z,48.31
2018-09-14T11:10:03.598Z,47.44
2018-09-14T11:12:33.006Z,47.56
2018-09-14T11:15:02.522Z,48.41
2018-09-14T11:17:32.163Z,47.89
2018-09-14T11:20:01.693Z,48.17
2018-09-14T11:22:31.143Z,46.89
2018-09-14T11:25:00.718Z,46.77
2018-09-14T11:27:30.404Z,46.65
2018-09-14T11:29:59.901Z,46.95
2018-09-14T11:32:29.418Z,48.68
2018-09-14T11:34:58.958Z,46.94
2018-09-14T11:37:28.696Z,45.46
2018-09-14T11:40:01.043Z,45.05
2018-09-14T11:42:31.229Z,44.79
2018-09-14T11:45:01.045Z,45.14
2018-09-14T11:47:30.566Z,44.82
2018-09-14T11:49:59.972Z,45.42
2018-09-14T11:52:30.108Z,45.44
2018-09-14T11:54:59.676Z,45.65
2018-09-14T11:57:29.213Z,45.21
2018-09-14T11:59:58.789Z,45.00
2018-09-14T12:02:28.416Z,46.06
2018-09-14T12:04:57.909Z,45.50
2018-09-14T12:07:27.541Z,44.72
2018-09-14T12:09:57.276Z,44.91
2018-09-14T12:12:26.753Z,44.33
2018-09-14T12:14:56.278Z,44.32
2018-09-14T12:17:26.092Z,43.25
2018-09-14T12:19:56.191Z,43.87
2018-09-14T12:22:25.739Z,42.81
2018-09-14T12:24:55.245Z,41.88
2018-09-14T12:27:24.928Z,42.52
2018-09-14T12:29:54.504Z,40.44
2018-09-14T12:32:23.997Z,38.16
2018-09-14T12:34:53.480Z,36.12
2018-09-14T12:37:23.818Z,32.73
2018-09-14T12:39:53.278Z,30.79
2018-09-14T12:42:22.758Z,30.64
2018-09-14T12:44:52.393Z,30.05
2018-09-14T12:47:21.832Z,30.04
2018-09-14T12:49:51.280Z,29.21
2018-09-14T12:52:20.811Z,28.51
2018-09-14T12:54:50.440Z,28.33
2018-09-14T12:57:20.026Z,27.47
2018-09-14T12:59:50.014Z,27.17
2018-09-14T13:02:19.566Z,27.03
2018-09-14T13:04:49.088Z,26.69
2018-09-14T13:07:18.557Z,27.45
2018-09-14T13:09:48.094Z,27.22
2018-09-14T13:12:17.544Z,24.84
2018-09-14T13:14:47.052Z,26.56
2018-09-14T13:17:16.593Z,26.75
2018-09-14T13:19:46.213Z,28.57
2018-09-14T13:22:15.823Z,28.41
2018-09-14T13:24:45.305Z,27.72
2018-09-14T13:27:14.823Z,28.51
2018-09-14T13:29:44.386Z,27.56
2018-09-14T13:32:13.920Z,28.04
2018-09-14T13:34:43.433Z,26.35
2018-09-14T13:37:13.557Z,26.53
2018-09-14T13:39:43.082Z,27.10
2018-09-14T13:42:12.712Z,29.29
2018-09-14T13:44:42.263Z,33.81
2018-09-14T13:47:11.873Z,35.69
2018-09-14T13:49:41.477Z,34.64
2018-09-14T13:52:10.933Z,32.11
2018-09-14T13:54:40.515Z,33.83
2018-09-14T13:57:09.968Z,34.93
2018-09-14T13:59:40.268Z,35.50
2018-09-14T14:02:09.851Z,37.03
2018-09-14T14:04:39.351Z,36.22
2018-09-14T14:07:09.084Z,33.37
2018-09-14T14:09:38.578Z,31.88
2018-09-14T14:12:07.991Z,31.48
2018-09-14T14:14:37.605Z,30.69
2018-09-14T14:17:07.520Z,28.53
2018-09-14T14:19:36.897Z,30.16
2018-09-14T14:22:06.622Z,32.88
2018-09-14T14:24:36.258Z,31.09
2018-09-14T14:27:06.005Z,32.71
2018-09-14T14:29:35.520Z,34.27
2018-09-14T14:32:05.030Z,36.14
2018-09-14T14:34:34.682Z,33.55
2018-09-14T14:37:04.314Z,31.75
2018-09-14T14:39:33.785Z,29.18
2018-09-14T14:42:03.262Z,26.73
2018-09-14T14:44:32.775Z,27.17
2018-09-14T14:47:02.266Z,26.93
2018-09-14T14:49:31.761Z,27.14
2018-09-14T14:52:01.224Z,29.11
2018-09-14T14:54:30.761Z,30.50
2018-09-14T14:57:00.194Z,30.41
2018-09-14T14:59:29.864Z,29.16
2018-09-14T15:01:59.379Z,27.77
2018-09-14T15:04:29.138Z,27.51
2018-09-14T15:06:58.677Z,28.71
2018-09-14T15:09:28.132Z,31.28
2018-09-14T15:11:57.738Z,32.64
2018-09-14T15:14:27.217Z,33.37
2018-09-14T15:16:56.645Z,34.60
2018-09-14T15:19:26.474Z,33.17
2018-09-14T15:21:55.944Z,30.23
2018-09-14T15:24:25.439Z,29.96
2018-09-14T15:26:54.861Z,30.07
2018-09-14T15:29:24.581Z,30.21
2018-09-14T15:31:54.137Z,29.87
2018-09-14T15:34:23.607Z,31.55
2018-09-14T15:36:53.281Z,29.86
2018-09-14T15:39:22.904Z,30.77
2018-09-14T15:41:52.554Z,33.45
2018-09-14T15:44:22.730Z,34.52
2018-09-14T15:46:52.192Z,34.46
2018-09-14T15:49:21.681Z,35.32
2018-09-14T15:51:51.246Z,35.45
2018-09-14T15:54:21.181Z,35.48
2018-09-14T15:56:50.730Z,35.76
2018-09-14T15:59:20.409Z,36.91
2018-09-14T16:01:50.023Z,37.07
2018-09-14T16:04:19.522Z,39.47
2018-09-14T16:06:49.443Z,39.75
2018-09-14T16:09:18.954Z,39.99
2018-09-14T16:11:49.196Z,40.55
2018-09-14T16:14:18.717Z,40.29
2018-09-14T16:16:48.600Z,41.58
2018-09-14T16:19:18.166Z,41.57
2018-09-14T16:21:47.716Z,41.43
2018-09-14T16:24:18.417Z,41.30
2018-09-14T16:26:48.040Z,41.64
2018-09-14T16:29:17.655Z,42.49
2018-09-14T16:31:47.244Z,42.42
2018-09-14T16:34:16.809Z,41.90
2018-09-14T16:36:46.465Z,43.76
2018-09-14T16:39:16.014Z,44.08
2018-09-14T16:41:45.570Z,44.14
2018-09-14T16:44:15.141Z,44.17
2018-09-14T16:46:44.671Z,45.04
2018-09-14T16:49:14.122Z,43.93
2018-09-14T16:51:43.728Z,44.36
2018-09-14T16:54:13.254Z,44.96
2018-09-14T16:56:42.885Z,45.98
2018-09-14T16:59:13.717Z,44.96
2018-09-14T17:01:43.298Z,45.69
2018-09-14T17:04:12.804Z,48.25
2018-09-14T17:06:42.373Z,46.88
2018-09-14T17:09:12.098Z,47.81
2018-09-14T17:11:41.684Z,52.41
2018-09-14T17:14:11.237Z,53.24
2018-09-14T17:16:40.717Z,53.73
2018-09-14T17:19:10.209Z,55.37
2018-09-14T17:21:39.759Z,55.63
2018-09-14T17:24:10.342Z,55.52
2018-09-14T17:26:39.830Z,56.81
2018-09-14T17:29:09.341Z,58.51
2018-09-14T17:31:38.878Z,57.91
2018-09-14T17:34:08.384Z,58.11
2018-09-14T17:36:39.236Z,60.87
2018-09-14T17:39:10.579Z,61.14
2018-09-14T17:41:40.750Z,61.57
2018-09-14T17:44:10.344Z,62.64
2018-09-14T17:46:39.864Z,63.83
2018-09-14T17:49:09.600Z,61.40
2018-09-14T17:51:39.163Z,60.30
2018-09-14T17:54:10.621Z,59.88
2018-09-14T17:56:40.107Z,59.17
2018-09-14T17:59:09.701Z,59.35
2018-09-14T18:01:39.549Z,59.74
2018-09-14T18:04:10.042Z,59.29
2018-09-14T18:06:39.579Z,60.25
2018-09-14T18:09:12.852Z,61.15
2018-09-14T18:11:42.687Z,60.95
2018-09-14T18:14:12.197Z,61.75
2018-09-14T18:16:41.974Z,62.10
2018-09-14T18:19:11.527Z,62.48
2018-09-14T18:21:41.004Z,63.24
2018-09-14T18:24:10.586Z,64.08
2018-09-14T18:26:40.081Z,66.03
2018-09-14T18:29:09.998Z,65.99
2018-09-14T18:31:39.548Z,66.71
2018-09-14T18:34:09.034Z,67.27
2018-09-14T18:36:38.801Z,68.25
2018-09-14T18:39:11.597Z,67.46
2018-09-14T18:41:41.358Z,68.85
2018-09-14T18:44:10.822Z,69.74
2018-09-14T18:46:40.282Z,68.87
2018-09-14T18:49:10.174Z,68.55
2018-09-14T18:51:39.640Z,69.08
2018-09-14T18:54:09.645Z,68.85
2018-09-14T18:56:39.142Z,68.76
2018-09-14T18:59:08.863Z,68.91
2018-09-14T19:01:38.379Z,69.84
2018-09-14T19:04:08.307Z,70.12
2018-09-14T19:06:37.802Z,70.44
2018-09-14T19:09:12.228Z,70.48
2018-09-14T19:11:42.631Z,70.94
2018-09-14T19:14:12.195Z,70.35
2018-09-14T19:16:42.227Z,70.59
2018-09-14T19:19:12.068Z,72.22
2018-09-14T19:21:41.573Z,73.85
2018-09-14T19:24:11.126Z,73.56
2018-09-14T19:26:40.600Z,74.15
2018-09-14T19:29:10.030Z,74.72
2018-09-14T19:31:39.590Z,74.24
2018-09-14T19:34:09.091Z,74.95
2018-09-14T19:36:38.729Z,75.29
2018-09-14T19:39:11.961Z,74.73
2018-09-14T19:41:41.448Z,75.35
2018-09-14T19:44:10.937Z,76.10
2018-09-14T19:46:40.400Z,76.82
2018-09-14T19:49:10.013Z,76.88
2018-09-14T19:51:39.509Z,76.69
2018-09-14T19:54:09.082Z,77.56
2018-09-14T19:56:38.603Z,77.90
2018-09-14T19:59:08.088Z,78.83
2018-09-14T20:01:37.672Z,78.57
2018-09-14T20:04:07.744Z,79.63
2018-09-14T20:06:37.238Z,78.98
2018-09-14T20:09:11.986Z,79.63
2018-09-14T20:11:41.655Z,79.74
2018-09-14T20:14:11.045Z,79.25
2018-09-14T20:16:40.711Z,80.54
2018-09-14T20:19:10.364Z,80.00
2018-09-14T20:21:40.172Z,80.03
2018-09-14T20:24:09.842Z,80.14
2018-09-14T20:26:39.868Z,80.53
2018-09-14T20:29:09.424Z,82.14
2018-09-14T20:31:38.944Z,82.27
2018-09-14T20:34:08.620Z,82.76
2018-09-14T20:36:38.213Z,82.46
2018-09-14T20:39:11.414Z,81.63
2018-09-14T20:41:41.179Z,81.71
2018-09-14T20:44:10.854Z,81.62
2018-09-14T20:46:40.327Z,82.39
2018-09-14T20:49:09.817Z,82.33
2018-09-14T20:51:39.318Z,82.15
2018-09-14T20:54:08.859Z,82.99
2018-09-14T20:56:38.370Z,82.80
2018-09-14T20:59:07.884Z,82.88
2018-09-14T21:01:37.357Z,83.04
2018-09-14T21:04:06.853Z,83.32
2018-09-14T21:06:36.313Z,83.11
2018-09-14T21:09:08.777Z,83.10
2018-09-14T21:11:38.474Z,83.21
2018-09-14T21:14:08.011Z,82.84
2018-09-14T21:16:37.605Z,83.07
2018-09-14T21:19:07.137Z,82.09
2018-09-14T21:21:36.619Z,81.77
2018-09-14T21:24:06.210Z,82.15
2018-09-14T21:26:35.755Z,82.32
2018-09-14T21:29:05.304Z,82.70
2018-09-14T21:31:34.784Z,82.99
2018-09-14T21:34:04.263Z,82.14
2018-09-14T21:36:33.754Z,82.76
2018-09-14T21:39:03.336Z,82.55
2018-09-14T21:41:32.856Z,82.39
2018-09-14T21:44:02.343Z,83.07
2018-09-14T21:46:31.921Z,83.49
2018-09-14T21:49:01.420Z,83.70
2018-09-14T21:51:30.951Z,84.28
2018-09-14T21:54:00.509Z,83.47
2018-09-14T21:56:29.980Z,83.05
2018-09-14T21:58:59.491Z,82.53
2018-09-14T22:01:30.351Z,82.41
2018-09-14T22:04:00.957Z,83.06
2018-09-14T22:06:30.468Z,82.59
2018-09-14T22:08:59.927Z,83.03
2018-09-14T22:11:29.355Z,82.40
2018-09-14T22:13:58.866Z,80.54
2018-09-14T22:16:28.345Z,81.20
2018-09-14T22:18:57.804Z,79.95
2018-09-14T22:21:27.387Z,78.40
2018-09-14T22:23:56.843Z,78.80
2018-09-14T22:26:26.280Z,76.10
2018-09-14T22:28:55.823Z,73.34
2018-09-14T22:31:25.311Z,72.54
2018-09-14T22:33:54.864Z,70.29
2018-09-14T22:36:24.401Z,70.65
2018-09-14T22:38:53.908Z,70.95
2018-09-14T22:41:23.396Z,70.30
2018-09-14T22:43:52.869Z,70.09
2018-09-14T22:46:22.370Z,70.18
2018-09-14T22:48:51.846Z,70.70
2018-09-14T22:51:21.351Z,70.42
2018-09-14T22:53:50.901Z,70.85
2018-09-14T22:56:20.425Z,71.10
2018-09-14T22:58:49.904Z,71.41
2018-09-14T23:01:20.323Z,71.09
2018-09-14T23:03:50.701Z,71.49
2018-09-14T23:06:20.145Z,70.89
2018-09-14T23:08:49.558Z,71.39
2018-09-14T23:11:19.063Z,71.69
2018-09-14T23:13:48.581Z,71.78
2018-09-14T23:16:18.103Z,71.70
2018-09-14T23:18:47.565Z,71.48
2018-09-14T23:21:17.023Z,71.52
2018-09-14T23:23:46.516Z,71.39
2018-09-14T23:26:18.570Z,70.99
2018-09-14T23:28:48.065Z,70.62
2018-09-14T23:31:17.534Z,70.50
2018-09-14T23:33:47.132Z,70.03
2018-09-14T23:36:16.592Z,70.76
2018-09-14T23:38:46.062Z,71.00
2018-09-14T23:41:15.561Z,70.58
2018-09-14T23:43:45.021Z,70.72
2018-09-14T23:46:14.494Z,70.16
2018-09-14T23:48:44.172Z,70.99
2018-09-14T23:51:13.617Z,70.80
2018-09-14T23:53:43.050Z,70.51
2018-09-14T23:56:12.522Z,70.17
2018-09-14T23:58:41.964Z,70.64
